PWSweather.com
Personal Weather Stations
Station Observations
BREEJEDURP
'sGravenzande, WestlandNL

'sGravenzandeWestlandNL

Lat: 52.00095260000001, Lon: 4.174256600000035

Elevation: 3

Station Type: Davis Vantage Pro2 Plus

www.breejedurp.nl

High Low Average
Temperature 46.2°F7.9°C 37.2°F2.9°C 43.8°F6.6°C
Dew Point 43.9°F6.6°C 35.9°F2.2°C 41.7°F5.4°C
Winds 14.0 mph 22.5 kmh 2.0 mph 3.2 kmh 8.0 mph WSW12.9 kmh WSW
Wind Gusts 19.0 mph30.6 kmh 3.0 mph4.8 kmh 12.0 mph19.3 kmh
Humidity 98% 88% 92%
Pressure 30.06 in1017.9 mb 29.65 in1004.1 mb -
Precipitation 0.03 in0.8 mm - -
Hour Temp Dew Point Humidity Winds Wind Gusts Pressure Precip Precip Rate Daily Precip Total
12:04 AM 37.2°F2.9°C 35.9°F2.2°C 95% 9.0 mph ESE14.5 kmh ESE 13.0 mph20.9 kmh 29.73 in1006.8 mb 0.00 in0.0 mm 0.00 in0.0 mm 0.00 in0.0 mm
12:09 AM 37.2°F2.9°C 35.9°F2.2°C 95% 9.0 mph ESE14.5 kmh ESE 12.0 mph19.3 kmh 29.72 in1006.4 mb 0.00 in0.0 mm 0.00 in0.0 mm 0.01 in0.3 mm
12:14 AM 37.2°F2.9°C 35.9°F2.2°C 95% 7.0 mph SE11.3 kmh SE 11.0 mph17.7 kmh 29.72 in1006.4 mb 0.00 in0.0 mm 0.00 in0.0 mm 0.01 in0.3 mm
12:19 AM 37.2°F2.9°C 35.9°F2.2°C 95% 10.0 mph SE16.1 kmh SE 15.0 mph24.1 kmh 29.72 in1006.4 mb 0.00 in0.0 mm 0.00 in0.0 mm 0.01 in0.3 mm
12:24 AM 37.4°F3.0°C 36.1°F2.3°C 95% 8.0 mph SE12.9 kmh SE 13.0 mph20.9 kmh 29.72 in1006.4 mb 0.00 in0.0 mm 0.00 in0.0 mm 0.01 in0.3 mm
12:29 AM 37.4°F3.0°C 36.1°F2.3°C 95% 6.0 mph SE9.7 kmh SE 12.0 mph19.3 kmh 29.72 in1006.4 mb 0.00 in0.0 mm 0.00 in0.0 mm 0.01 in0.3 mm
12:34 AM 37.4°F3.0°C 36.1°F2.3°C 95% 9.0 mph ESE14.5 kmh ESE 12.0 mph19.3 kmh 29.72 in1006.4 mb 0.00 in0.0 mm 0.00 in0.0 mm 0.01 in0.3 mm
12:39 AM 37.4°F3.0°C 36.1°F2.3°C 95% 9.0 mph SE14.5 kmh SE 12.0 mph19.3 kmh 29.72 in1006.4 mb 0.00 in0.0 mm 0.00 in0.0 mm 0.01 in0.3 mm
12:44 AM 37.6°F3.1°C 36.3°F2.4°C 95% 8.0 mph SE12.9 kmh SE 12.0 mph19.3 kmh 29.72 in1006.4 mb 0.00 in0.0 mm 0.00 in0.0 mm 0.01 in0.3 mm
12:49 AM 37.6°F3.1°C 36.3°F2.4°C 95% 6.0 mph SSE9.7 kmh SSE 10.0 mph16.1 kmh 29.72 in1006.4 mb 0.00 in0.0 mm 0.00 in0.0 mm 0.01 in0.3 mm
12:54 AM 37.6°F3.1°C 36.3°F2.4°C 95% 9.0 mph SE14.5 kmh SE 13.0 mph20.9 kmh 29.72 in1006.4 mb 0.00 in0.0 mm 0.00 in0.0 mm 0.01 in0.3 mm
12:59 AM 37.6°F3.1°C 36.3°F2.4°C 95% 8.0 mph SE12.9 kmh SE 12.0 mph19.3 kmh 29.72 in1006.4 mb 0.00 in0.0 mm 0.00 in0.0 mm 0.01 in0.3 mm
01:04 AM 37.6°F3.1°C 36.3°F2.4°C 95% 8.0 mph SE12.9 kmh SE 12.0 mph19.3 kmh 29.72 in1006.4 mb 0.00 in0.0 mm 0.00 in0.0 mm 0.01 in0.3 mm
01:09 AM 37.6°F3.1°C 36.5°F2.5°C 96% 7.0 mph SE11.3 kmh SE 10.0 mph16.1 kmh 29.72 in1006.4 mb 0.00 in0.0 mm 0.00 in0.0 mm 0.01 in0.3 mm
01:14 AM 37.6°F3.1°C 36.5°F2.5°C 96% 8.0 mph SSE12.9 kmh SSE 9.0 mph14.5 kmh 29.71 in1006.1 mb 0.00 in0.0 mm 0.00 in0.0 mm 0.01 in0.3 mm
01:19 AM 37.6°F3.1°C 36.5°F2.5°C 96% 9.0 mph SE14.5 kmh SE 12.0 mph19.3 kmh 29.71 in1006.1 mb 0.00 in0.0 mm 0.00 in0.0 mm 0.01 in0.3 mm
01:24 AM 37.6°F3.1°C 36.5°F2.5°C 96% 6.0 mph SE9.7 kmh SE 9.0 mph14.5 kmh 29.70 in1005.8 mb 0.00 in0.0 mm 0.00 in0.0 mm 0.01 in0.3 mm
01:29 AM 37.8°F3.2°C 36.7°F2.6°C 96% 8.0 mph SE12.9 kmh SE 11.0 mph17.7 kmh 29.70 in1005.8 mb 0.00 in0.0 mm 0.00 in0.0 mm 0.01 in0.3 mm
01:34 AM 37.8°F3.2°C 36.7°F2.6°C 96% 9.0 mph SE14.5 kmh SE 13.0 mph20.9 kmh 29.70 in1005.8 mb 0.00 in0.0 mm 0.00 in0.0 mm 0.01 in0.3 mm
01:39 AM 37.8°F3.2°C 36.7°F2.6°C 96% 6.0 mph SE9.7 kmh SE 11.0 mph17.7 kmh 29.69 in1005.4 mb 0.00 in0.0 mm 0.00 in0.0 mm 0.02 in0.5 mm
01:44 AM 37.8°F3.2°C 36.7°F2.6°C 96% 5.0 mph SE8.0 kmh SE 8.0 mph12.9 kmh 29.70 in1005.8 mb 0.00 in0.0 mm 0.00 in0.0 mm 0.02 in0.5 mm
01:49 AM 37.8°F3.2°C 36.7°F2.6°C 96% 6.0 mph SSE9.7 kmh SSE 10.0 mph16.1 kmh 29.70 in1005.8 mb 0.00 in0.0 mm 0.00 in0.0 mm 0.02 in0.5 mm
01:54 AM 37.8°F3.2°C 36.7°F2.6°C 96% 7.0 mph SE11.3 kmh SE 10.0 mph16.1 kmh 29.69 in1005.4 mb 0.00 in0.0 mm 0.00 in0.0 mm 0.02 in0.5 mm
01:59 AM 37.8°F3.2°C 36.7°F2.6°C 96% 7.0 mph SE11.3 kmh SE 9.0 mph14.5 kmh 29.69 in1005.4 mb 0.00 in0.0 mm 0.00 in0.0 mm 0.02 in0.5 mm
02:04 AM 37.9°F3.3°C 36.9°F2.7°C 96% 5.0 mph SE8.0 kmh SE 7.0 mph11.3 kmh 29.69 in1005.4 mb 0.00 in0.0 mm 0.00 in0.0 mm 0.02 in0.5 mm
02:09 AM 37.9°F3.3°C 36.9°F2.7°C 96% 7.0 mph SE11.3 kmh SE 10.0 mph16.1 kmh 29.68 in1005.1 mb 0.00 in0.0 mm 0.00 in0.0 mm 0.02 in0.5 mm
02:14 AM 37.9°F3.3°C 36.9°F2.7°C 96% 6.0 mph SE9.7 kmh SE 10.0 mph16.1 kmh 29.68 in1005.1 mb 0.00 in0.0 mm 0.00 in0.0 mm 0.02 in0.5 mm
02:19 AM 37.9°F3.3°C 36.9°F2.7°C 96% 5.0 mph SSE8.0 kmh SSE 8.0 mph12.9 kmh 29.68 in1005.1 mb 0.00 in0.0 mm 0.00 in0.0 mm 0.02 in0.5 mm
02:24 AM 37.9°F3.3°C 36.9°F2.7°C 96% 6.0 mph SE9.7 kmh SE 10.0 mph16.1 kmh 29.68 in1005.1 mb 0.00 in0.0 mm 0.00 in0.0 mm 0.02 in0.5 mm
02:29 AM 38.1°F3.4°C 37.1°F2.8°C 96% 7.0 mph SE11.3 kmh SE 9.0 mph14.5 kmh 29.68 in1005.1 mb 0.00 in0.0 mm 0.00 in0.0 mm 0.02 in0.5 mm
02:34 AM 38.1°F3.4°C 37.1°F2.8°C 96% 5.0 mph SE8.0 kmh SE 7.0 mph11.3 kmh 29.68 in1005.1 mb 0.00 in0.0 mm 0.00 in0.0 mm 0.02 in0.5 mm
02:39 AM 38.3°F3.5°C 37.3°F2.9°C 96% 6.0 mph SE9.7 kmh SE 8.0 mph12.9 kmh 29.67 in1004.7 mb 0.00 in0.0 mm 0.00 in0.0 mm 0.02 in0.5 mm
02:44 AM 38.3°F3.5°C 37.3°F2.9°C 96% 4.0 mph SE6.4 kmh SE 6.0 mph9.7 kmh 29.67 in1004.7 mb 0.00 in0.0 mm 0.00 in0.0 mm 0.02 in0.5 mm
02:49 AM 38.5°F3.6°C 37.4°F3.0°C 96% 4.0 mph SE6.4 kmh SE 8.0 mph12.9 kmh 29.67 in1004.7 mb 0.00 in0.0 mm 0.00 in0.0 mm 0.02 in0.5 mm
02:54 AM 38.5°F3.6°C 37.4°F3.0°C 96% 5.0 mph SE8.0 kmh SE 8.0 mph12.9 kmh 29.67 in1004.7 mb 0.00 in0.0 mm 0.00 in0.0 mm 0.02 in0.5 mm
02:59 AM 38.7°F3.7°C 37.9°F3.3°C 97% 2.0 mph S3.2 kmh S 3.0 mph4.8 kmh 29.67 in1004.7 mb 0.00 in0.0 mm 0.00 in0.0 mm 0.02 in0.5 mm
03:04 AM 38.7°F3.7°C 37.9°F3.3°C 97% 5.0 mph S8.0 kmh S 8.0 mph12.9 kmh 29.68 in1005.1 mb 0.00 in0.0 mm 0.00 in0.0 mm 0.02 in0.5 mm
03:09 AM 38.8°F3.8°C 38.1°F3.4°C 97% 6.0 mph ESE9.7 kmh ESE 9.0 mph14.5 kmh 29.67 in1004.7 mb 0.00 in0.0 mm 0.00 in0.0 mm 0.02 in0.5 mm
03:14 AM 38.8°F3.8°C 38.1°F3.4°C 97% 5.0 mph SW8.0 kmh SW 8.0 mph12.9 kmh 29.67 in1004.7 mb 0.00 in0.0 mm 0.00 in0.0 mm 0.02 in0.5 mm
03:19 AM 39.0°F3.9°C 38.2°F3.4°C 97% 4.0 mph SE6.4 kmh SE 5.0 mph8.0 kmh 29.67 in1004.7 mb 0.00 in0.0 mm 0.00 in0.0 mm 0.02 in0.5 mm
03:24 AM 39.0°F3.9°C 38.2°F3.4°C 97% 5.0 mph S8.0 kmh S 9.0 mph14.5 kmh 29.67 in1004.7 mb 0.00 in0.0 mm 0.00 in0.0 mm 0.02 in0.5 mm
03:29 AM 39.0°F3.9°C 38.2°F3.4°C 97% 8.0 mph SE12.9 kmh SE 10.0 mph16.1 kmh 29.67 in1004.7 mb 0.00 in0.0 mm 0.00 in0.0 mm 0.02 in0.5 mm
03:34 AM 39.4°F4.1°C 38.6°F3.7°C 97% 6.0 mph SE9.7 kmh SE 9.0 mph14.5 kmh 29.67 in1004.7 mb 0.00 in0.0 mm 0.00 in0.0 mm 0.02 in0.5 mm
03:39 AM 39.4°F4.1°C 38.6°F3.7°C 97% 4.0 mph S6.4 kmh S 7.0 mph11.3 kmh 29.67 in1004.7 mb 0.00 in0.0 mm 0.00 in0.0 mm 0.02 in0.5 mm
03:44 AM 39.6°F4.2°C 38.8°F3.8°C 97% 4.0 mph S6.4 kmh S 6.0 mph9.7 kmh 29.67 in1004.7 mb 0.00 in0.0 mm 0.00 in0.0 mm 0.02 in0.5 mm
03:49 AM 39.6°F4.2°C 38.8°F3.8°C 97% 2.0 mph S3.2 kmh S 5.0 mph8.0 kmh 29.67 in1004.7 mb 0.00 in0.0 mm 0.00 in0.0 mm 0.02 in0.5 mm
03:54 AM 39.6°F4.2°C 38.8°F3.8°C 97% 4.0 mph SSE6.4 kmh SSE 5.0 mph8.0 kmh 29.67 in1004.7 mb 0.00 in0.0 mm 0.00 in0.0 mm 0.02 in0.5 mm
03:59 AM 39.7°F4.3°C 39.0°F3.9°C 97% 5.0 mph SSW8.0 kmh SSW 7.0 mph11.3 kmh 29.67 in1004.7 mb 0.00 in0.0 mm 0.00 in0.0 mm 0.02 in0.5 mm
04:04 AM 39.9°F4.4°C 39.1°F3.9°C 97% 4.0 mph SSE6.4 kmh SSE 7.0 mph11.3 kmh 29.66 in1004.4 mb 0.00 in0.0 mm 0.00 in0.0 mm 0.02 in0.5 mm
04:09 AM 40.1°F4.5°C 39.3°F4.1°C 97% 4.0 mph SSW6.4 kmh SSW 5.0 mph8.0 kmh 29.66 in1004.4 mb 0.00 in0.0 mm 0.00 in0.0 mm 0.02 in0.5 mm
04:14 AM 40.6°F4.8°C 39.9°F4.4°C 97% 4.0 mph SSW6.4 kmh SSW 7.0 mph11.3 kmh 29.66 in1004.4 mb 0.00 in0.0 mm 0.00 in0.0 mm 0.02 in0.5 mm
04:19 AM 40.8°F4.9°C 40.0°F4.4°C 97% 5.0 mph SW8.0 kmh SW 6.0 mph9.7 kmh 29.66 in1004.4 mb 0.00 in0.0 mm 0.00 in0.0 mm 0.02 in0.5 mm
04:24 AM 41.5°F5.3°C 40.8°F4.9°C 97% 5.0 mph SSW8.0 kmh SSW 9.0 mph14.5 kmh 29.66 in1004.4 mb 0.00 in0.0 mm 0.00 in0.0 mm 0.02 in0.5 mm
04:29 AM 42.3°F5.7°C 41.5°F5.3°C 97% 4.0 mph WSW6.4 kmh WSW 8.0 mph12.9 kmh 29.65 in1004.1 mb 0.00 in0.0 mm 0.00 in0.0 mm 0.02 in0.5 mm
04:34 AM 42.6°F5.9°C 42.1°F5.6°C 98% 6.0 mph W9.7 kmh W 10.0 mph16.1 kmh 29.66 in1004.4 mb 0.00 in0.0 mm 0.00 in0.0 mm 0.02 in0.5 mm
04:39 AM 43.2°F6.2°C 42.6°F5.9°C 98% 6.0 mph WSW9.7 kmh WSW 10.0 mph16.1 kmh 29.65 in1004.1 mb 0.00 in0.0 mm 0.00 in0.0 mm 0.02 in0.5 mm
04:44 AM 43.7°F6.5°C 42.9°F6.1°C 97% 7.0 mph W11.3 kmh W 10.0 mph16.1 kmh 29.65 in1004.1 mb 0.00 in0.0 mm 0.00 in0.0 mm 0.02 in0.5 mm
04:49 AM 44.1°F6.7°C 43.3°F6.3°C 97% 12.0 mph W19.3 kmh W 14.0 mph22.5 kmh 29.66 in1004.4 mb 0.00 in0.0 mm 0.00 in0.0 mm 0.02 in0.5 mm
04:54 AM 44.2°F6.8°C 43.4°F6.3°C 97% 11.0 mph W17.7 kmh W 15.0 mph24.1 kmh 29.66 in1004.4 mb 0.00 in0.0 mm 0.00 in0.0 mm 0.02 in0.5 mm
04:59 AM 44.4°F6.9°C 43.9°F6.6°C 98% 9.0 mph W14.5 kmh W 14.0 mph22.5 kmh 29.66 in1004.4 mb 0.00 in0.0 mm 0.00 in0.0 mm 0.02 in0.5 mm
05:04 AM 44.4°F6.9°C 43.6°F6.4°C 97% 10.0 mph W16.1 kmh W 19.0 mph30.6 kmh 29.65 in1004.1 mb 0.00 in0.0 mm 0.00 in0.0 mm 0.02 in0.5 mm
05:09 AM 44.4°F6.9°C 43.6°F6.4°C 97% 9.0 mph W14.5 kmh W 12.0 mph19.3 kmh 29.65 in1004.1 mb 0.00 in0.0 mm 0.00 in0.0 mm 0.02 in0.5 mm
05:14 AM 44.4°F6.9°C 43.6°F6.4°C 97% 8.0 mph W12.9 kmh W 15.0 mph24.1 kmh 29.66 in1004.4 mb 0.00 in0.0 mm 0.00 in0.0 mm 0.02 in0.5 mm
05:19 AM 44.4°F6.9°C 43.6°F6.4°C 97% 7.0 mph W11.3 kmh W 11.0 mph17.7 kmh 29.66 in1004.4 mb 0.00 in0.0 mm 0.00 in0.0 mm 0.02 in0.5 mm
05:24 AM 44.2°F6.8°C 43.4°F6.3°C 97% 8.0 mph W12.9 kmh W 10.0 mph16.1 kmh 29.66 in1004.4 mb 0.00 in0.0 mm 0.00 in0.0 mm 0.02 in0.5 mm
05:29 AM 44.2°F6.8°C 43.4°F6.3°C 97% 10.0 mph W16.1 kmh W 14.0 mph22.5 kmh 29.66 in1004.4 mb 0.00 in0.0 mm 0.00 in0.0 mm 0.02 in0.5 mm
05:34 AM 44.2°F6.8°C 43.4°F6.3°C 97% 7.0 mph W11.3 kmh W 10.0 mph16.1 kmh 29.66 in1004.4 mb 0.00 in0.0 mm 0.00 in0.0 mm 0.02 in0.5 mm
05:39 AM 44.2°F6.8°C 43.4°F6.3°C 97% 9.0 mph W14.5 kmh W 11.0 mph17.7 kmh 29.67 in1004.7 mb 0.00 in0.0 mm 0.00 in0.0 mm 0.02 in0.5 mm
05:44 AM 44.2°F6.8°C 43.4°F6.3°C 97% 10.0 mph W16.1 kmh W 14.0 mph22.5 kmh 29.67 in1004.7 mb 0.00 in0.0 mm 0.00 in0.0 mm 0.02 in0.5 mm
05:49 AM 44.2°F6.8°C 43.4°F6.3°C 97% 8.0 mph W12.9 kmh W 10.0 mph16.1 kmh 29.67 in1004.7 mb 0.00 in0.0 mm 0.00 in0.0 mm 0.02 in0.5 mm
05:54 AM 44.1°F6.7°C 43.3°F6.3°C 97% 8.0 mph W12.9 kmh W 10.0 mph16.1 kmh 29.67 in1004.7 mb 0.00 in0.0 mm 0.00 in0.0 mm 0.02 in0.5 mm
05:59 AM 44.1°F6.7°C 43.3°F6.3°C 97% 8.0 mph W12.9 kmh W 10.0 mph16.1 kmh 29.67 in1004.7 mb 0.00 in0.0 mm 0.00 in0.0 mm 0.02 in0.5 mm
06:04 AM 44.1°F6.7°C 43.3°F6.3°C 97% 8.0 mph W12.9 kmh W 10.0 mph16.1 kmh 29.67 in1004.7 mb 0.00 in0.0 mm 0.00 in0.0 mm 0.02 in0.5 mm
06:09 AM 44.1°F6.7°C 43.3°F6.3°C 97% 8.0 mph W12.9 kmh W 12.0 mph19.3 kmh 29.66 in1004.4 mb 0.00 in0.0 mm 0.00 in0.0 mm 0.02 in0.5 mm
06:14 AM 44.1°F6.7°C 43.3°F6.3°C 97% 10.0 mph W16.1 kmh W 16.0 mph25.7 kmh 29.66 in1004.4 mb 0.00 in0.0 mm 0.00 in0.0 mm 0.02 in0.5 mm
06:19 AM 43.9°F6.6°C 43.1°F6.2°C 97% 8.0 mph W12.9 kmh W 12.0 mph19.3 kmh 29.67 in1004.7 mb 0.00 in0.0 mm 0.00 in0.0 mm 0.02 in0.5 mm
06:24 AM 44.1°F6.7°C 43.0°F6.1°C 96% 10.0 mph W16.1 kmh W 15.0 mph24.1 kmh 29.67 in1004.7 mb 0.00 in0.0 mm 0.00 in0.0 mm 0.02 in0.5 mm
06:29 AM 44.1°F6.7°C 43.0°F6.1°C 96% 9.0 mph W14.5 kmh W 13.0 mph20.9 kmh 29.67 in1004.7 mb 0.00 in0.0 mm 0.00 in0.0 mm 0.02 in0.5 mm
06:34 AM 44.1°F6.7°C 43.0°F6.1°C 96% 7.0 mph W11.3 kmh W 12.0 mph19.3 kmh 29.68 in1005.1 mb 0.00 in0.0 mm 0.00 in0.0 mm 0.02 in0.5 mm
06:39 AM 44.1°F6.7°C 43.0°F6.1°C 96% 9.0 mph W14.5 kmh W 13.0 mph20.9 kmh 29.67 in1004.7 mb 0.00 in0.0 mm 0.00 in0.0 mm 0.02 in0.5 mm
06:44 AM 44.1°F6.7°C 43.0°F6.1°C 96% 8.0 mph W12.9 kmh W 10.0 mph16.1 kmh 29.68 in1005.1 mb 0.00 in0.0 mm 0.00 in0.0 mm 0.02 in0.5 mm
06:49 AM 44.1°F6.7°C 43.0°F6.1°C 96% 8.0 mph WSW12.9 kmh WSW 14.0 mph22.5 kmh 29.67 in1004.7 mb 0.00 in0.0 mm 0.00 in0.0 mm 0.02 in0.5 mm
06:54 AM 44.1°F6.7°C 43.0°F6.1°C 96% 12.0 mph W19.3 kmh W 17.0 mph27.4 kmh 29.68 in1005.1 mb 0.00 in0.0 mm 0.00 in0.0 mm 0.02 in0.5 mm
06:59 AM 44.2°F6.8°C 43.2°F6.2°C 96% 11.0 mph W17.7 kmh W 18.0 mph29.0 kmh 29.67 in1004.7 mb 0.00 in0.0 mm 0.00 in0.0 mm 0.02 in0.5 mm
07:04 AM 44.4°F6.9°C 43.1°F6.2°C 95% 11.0 mph W17.7 kmh W 14.0 mph22.5 kmh 29.67 in1004.7 mb 0.00 in0.0 mm 0.00 in0.0 mm 0.02 in0.5 mm
07:09 AM 44.4°F6.9°C 43.1°F6.2°C 95% 11.0 mph WNW17.7 kmh WNW 18.0 mph29.0 kmh 29.67 in1004.7 mb 0.00 in0.0 mm 0.00 in0.0 mm 0.02 in0.5 mm
07:14 AM 44.6°F7.0°C 43.0°F6.1°C 94% 11.0 mph WNW17.7 kmh WNW 18.0 mph29.0 kmh 29.67 in1004.7 mb 0.00 in0.0 mm 0.00 in0.0 mm 0.02 in0.5 mm
07:19 AM 44.8°F7.1°C 43.2°F6.2°C 94% 14.0 mph WNW22.5 kmh WNW 17.0 mph27.4 kmh 29.67 in1004.7 mb 0.00 in0.0 mm 0.00 in0.0 mm 0.02 in0.5 mm
07:23 AM 44.8°F7.1°C 42.9°F6.1°C 93% 11.0 mph WNW17.7 kmh WNW 16.0 mph25.7 kmh 29.67 in1004.7 mb 0.00 in0.0 mm 0.00 in0.0 mm 0.02 in0.5 mm
07:29 AM 45.0°F7.2°C 43.1°F6.2°C 93% 10.0 mph WNW16.1 kmh WNW 14.0 mph22.5 kmh 29.68 in1005.1 mb 0.00 in0.0 mm 0.00 in0.0 mm 0.02 in0.5 mm
07:34 AM 45.0°F7.2°C 42.8°F6.0°C 92% 8.0 mph W12.9 kmh W 11.0 mph17.7 kmh 29.68 in1005.1 mb 0.00 in0.0 mm 0.00 in0.0 mm 0.02 in0.5 mm
07:39 AM 45.0°F7.2°C 42.8°F6.0°C 92% 10.0 mph W16.1 kmh W 16.0 mph25.7 kmh 29.69 in1005.4 mb 0.00 in0.0 mm 0.00 in0.0 mm 0.02 in0.5 mm
07:44 AM 45.1°F7.3°C 42.7°F5.9°C 91% 11.0 mph W17.7 kmh W 17.0 mph27.4 kmh 29.68 in1005.1 mb 0.00 in0.0 mm 0.00 in0.0 mm 0.02 in0.5 mm
07:49 AM 45.0°F7.2°C 42.5°F5.8°C 91% 10.0 mph W16.1 kmh W 13.0 mph20.9 kmh 29.69 in1005.4 mb 0.00 in0.0 mm 0.00 in0.0 mm 0.02 in0.5 mm
07:54 AM 45.0°F7.2°C 42.5°F5.8°C 91% 11.0 mph WNW17.7 kmh WNW 15.0 mph24.1 kmh 29.69 in1005.4 mb 0.00 in0.0 mm 0.00 in0.0 mm 0.02 in0.5 mm
07:59 AM 45.0°F7.2°C 42.5°F5.8°C 91% 11.0 mph W17.7 kmh W 15.0 mph24.1 kmh 29.69 in1005.4 mb 0.00 in0.0 mm 0.00 in0.0 mm 0.02 in0.5 mm
08:04 AM 45.1°F7.3°C 42.7°F5.9°C 91% 9.0 mph W14.5 kmh W 14.0 mph22.5 kmh 29.69 in1005.4 mb 0.00 in0.0 mm 0.00 in0.0 mm 0.02 in0.5 mm
08:09 AM 45.1°F7.3°C 42.4°F5.8°C 90% 9.0 mph W14.5 kmh W 12.0 mph19.3 kmh 29.69 in1005.4 mb 0.00 in0.0 mm 0.00 in0.0 mm 0.02 in0.5 mm
08:14 AM 45.1°F7.3°C 42.4°F5.8°C 90% 9.0 mph WNW14.5 kmh WNW 13.0 mph20.9 kmh 29.70 in1005.8 mb 0.00 in0.0 mm 0.00 in0.0 mm 0.02 in0.5 mm
08:19 AM 45.1°F7.3°C 42.4°F5.8°C 90% 10.0 mph WNW16.1 kmh WNW 13.0 mph20.9 kmh 29.70 in1005.8 mb 0.00 in0.0 mm 0.00 in0.0 mm 0.02 in0.5 mm
08:24 AM 45.3°F7.4°C 42.6°F5.9°C 90% 9.0 mph W14.5 kmh W 13.0 mph20.9 kmh 29.70 in1005.8 mb 0.00 in0.0 mm 0.00 in0.0 mm 0.02 in0.5 mm
08:29 AM 45.3°F7.4°C 42.6°F5.9°C 90% 9.0 mph W14.5 kmh W 14.0 mph22.5 kmh 29.70 in1005.8 mb 0.00 in0.0 mm 0.00 in0.0 mm 0.02 in0.5 mm
08:34 AM 45.3°F7.4°C 42.6°F5.9°C 90% 9.0 mph W14.5 kmh W 12.0 mph19.3 kmh 29.71 in1006.1 mb 0.00 in0.0 mm 0.00 in0.0 mm 0.02 in0.5 mm
08:39 AM 45.5°F7.5°C 42.7°F5.9°C 90% 9.0 mph WNW14.5 kmh WNW 13.0 mph20.9 kmh 29.71 in1006.1 mb 0.00 in0.0 mm 0.00 in0.0 mm 0.02 in0.5 mm
08:44 AM 45.5°F7.5°C 42.5°F5.8°C 89% 10.0 mph W16.1 kmh W 14.0 mph22.5 kmh 29.71 in1006.1 mb 0.00 in0.0 mm 0.00 in0.0 mm 0.02 in0.5 mm
08:49 AM 45.7°F7.6°C 42.6°F5.9°C 89% 9.0 mph W14.5 kmh W 14.0 mph22.5 kmh 29.71 in1006.1 mb 0.00 in0.0 mm 0.00 in0.0 mm 0.02 in0.5 mm
08:54 AM 45.7°F7.6°C 42.6°F5.9°C 89% 13.0 mph WNW20.9 kmh WNW 18.0 mph29.0 kmh 29.72 in1006.4 mb 0.00 in0.0 mm 0.00 in0.0 mm 0.02 in0.5 mm
08:59 AM 45.9°F7.7°C 42.5°F5.8°C 88% 9.0 mph W14.5 kmh W 13.0 mph20.9 kmh 29.71 in1006.1 mb 0.00 in0.0 mm 0.00 in0.0 mm 0.02 in0.5 mm
09:04 AM 45.7°F7.6°C 42.6°F5.9°C 89% 9.0 mph W14.5 kmh W 12.0 mph19.3 kmh 29.72 in1006.4 mb 0.00 in0.0 mm 0.00 in0.0 mm 0.02 in0.5 mm
09:09 AM 45.7°F7.6°C 42.6°F5.9°C 89% 12.0 mph WNW19.3 kmh WNW 16.0 mph25.7 kmh 29.72 in1006.4 mb 0.00 in0.0 mm 0.00 in0.0 mm 0.02 in0.5 mm
09:14 AM 45.5°F7.5°C 42.5°F5.8°C 89% 8.0 mph NW12.9 kmh NW 11.0 mph17.7 kmh 29.72 in1006.4 mb 0.00 in0.0 mm 0.00 in0.0 mm 0.02 in0.5 mm
09:19 AM 45.5°F7.5°C 42.7°F5.9°C 90% 8.0 mph NW12.9 kmh NW 14.0 mph22.5 kmh 29.72 in1006.4 mb 0.00 in0.0 mm 0.00 in0.0 mm 0.02 in0.5 mm
09:24 AM 45.5°F7.5°C 42.7°F5.9°C 90% 5.0 mph NW8.0 kmh NW 7.0 mph11.3 kmh 29.72 in1006.4 mb 0.00 in0.0 mm 0.00 in0.0 mm 0.02 in0.5 mm
09:29 AM 45.5°F7.5°C 42.7°F5.9°C 90% 7.0 mph NW11.3 kmh NW 11.0 mph17.7 kmh 29.72 in1006.4 mb 0.00 in0.0 mm 0.00 in0.0 mm 0.02 in0.5 mm
09:34 AM 45.3°F7.4°C 42.6°F5.9°C 90% 8.0 mph WNW12.9 kmh WNW 12.0 mph19.3 kmh 29.72 in1006.4 mb 0.00 in0.0 mm 0.00 in0.0 mm 0.02 in0.5 mm
09:39 AM 45.3°F7.4°C 42.9°F6.1°C 91% 5.0 mph WNW8.0 kmh WNW 8.0 mph12.9 kmh 29.72 in1006.4 mb 0.00 in0.0 mm 0.00 in0.0 mm 0.02 in0.5 mm
09:44 AM 45.3°F7.4°C 42.9°F6.1°C 91% 4.0 mph W6.4 kmh W 6.0 mph9.7 kmh 29.72 in1006.4 mb 0.00 in0.0 mm 0.00 in0.0 mm 0.02 in0.5 mm
09:49 AM 45.3°F7.4°C 42.9°F6.1°C 91% 4.0 mph W6.4 kmh W 7.0 mph11.3 kmh 29.73 in1006.8 mb 0.00 in0.0 mm 0.00 in0.0 mm 0.03 in0.8 mm
09:54 AM 45.0°F7.2°C 42.5°F5.8°C 91% 7.0 mph W11.3 kmh W 10.0 mph16.1 kmh 29.73 in1006.8 mb 0.00 in0.0 mm 0.00 in0.0 mm 0.03 in0.8 mm
09:59 AM 45.0°F7.2°C 42.8°F6.0°C 92% 6.0 mph W9.7 kmh W 10.0 mph16.1 kmh 29.73 in1006.8 mb 0.00 in0.0 mm 0.00 in0.0 mm 0.03 in0.8 mm
10:04 AM 45.1°F7.3°C 43.0°F6.1°C 92% 7.0 mph W11.3 kmh W 11.0 mph17.7 kmh 29.73 in1006.8 mb 0.00 in0.0 mm 0.00 in0.0 mm 0.03 in0.8 mm
10:09 AM 45.1°F7.3°C 43.0°F6.1°C 92% 7.0 mph W11.3 kmh W 10.0 mph16.1 kmh 29.73 in1006.8 mb 0.00 in0.0 mm 0.00 in0.0 mm 0.03 in0.8 mm
10:14 AM 45.1°F7.3°C 43.0°F6.1°C 92% 7.0 mph W11.3 kmh W 11.0 mph17.7 kmh 29.73 in1006.8 mb 0.00 in0.0 mm 0.00 in0.0 mm 0.03 in0.8 mm
10:19 AM 45.3°F7.4°C 43.4°F6.3°C 93% 4.0 mph W6.4 kmh W 6.0 mph9.7 kmh 29.73 in1006.8 mb 0.00 in0.0 mm 0.00 in0.0 mm 0.03 in0.8 mm
10:25 AM 45.1°F7.3°C 43.2°F6.2°C 93% 6.0 mph W9.7 kmh W 8.0 mph12.9 kmh 29.74 in1007.1 mb 0.00 in0.0 mm 0.00 in0.0 mm 0.03 in0.8 mm
10:30 AM 45.0°F7.2°C 43.1°F6.2°C 93% 8.0 mph W12.9 kmh W 10.0 mph16.1 kmh 29.74 in1007.1 mb 0.00 in0.0 mm 0.00 in0.0 mm 0.03 in0.8 mm
10:35 AM 45.0°F7.2°C 43.1°F6.2°C 93% 5.0 mph W8.0 kmh W 7.0 mph11.3 kmh 29.74 in1007.1 mb 0.00 in0.0 mm 0.00 in0.0 mm 0.03 in0.8 mm
10:40 AM 45.0°F7.2°C 43.3°F6.3°C 94% 8.0 mph W12.9 kmh W 10.0 mph16.1 kmh 29.74 in1007.1 mb 0.00 in0.0 mm 0.00 in0.0 mm 0.03 in0.8 mm
10:44 AM 45.0°F7.2°C 43.3°F6.3°C 94% 8.0 mph W12.9 kmh W 10.0 mph16.1 kmh 29.74 in1007.1 mb 0.00 in0.0 mm 0.00 in0.0 mm 0.03 in0.8 mm
10:49 AM 45.1°F7.3°C 43.5°F6.4°C 94% 7.0 mph W11.3 kmh W 11.0 mph17.7 kmh 29.74 in1007.1 mb 0.00 in0.0 mm 0.00 in0.0 mm 0.03 in0.8 mm
10:54 AM 45.1°F7.3°C 43.5°F6.4°C 94% 6.0 mph W9.7 kmh W 9.0 mph14.5 kmh 29.75 in1007.5 mb 0.00 in0.0 mm 0.00 in0.0 mm 0.03 in0.8 mm
10:59 AM 45.1°F7.3°C 43.5°F6.4°C 94% 3.0 mph W4.8 kmh W 4.0 mph6.4 kmh 29.75 in1007.5 mb 0.00 in0.0 mm 0.00 in0.0 mm 0.03 in0.8 mm
11:04 AM 45.1°F7.3°C 43.2°F6.2°C 93% 7.0 mph W11.3 kmh W 10.0 mph16.1 kmh 29.75 in1007.5 mb 0.00 in0.0 mm 0.00 in0.0 mm 0.03 in0.8 mm
11:09 AM 45.3°F7.4°C 43.4°F6.3°C 93% 8.0 mph W12.9 kmh W 11.0 mph17.7 kmh 29.75 in1007.5 mb 0.00 in0.0 mm 0.00 in0.0 mm 0.03 in0.8 mm
11:14 AM 45.3°F7.4°C 43.4°F6.3°C 93% 8.0 mph W12.9 kmh W 12.0 mph19.3 kmh 29.75 in1007.5 mb 0.00 in0.0 mm 0.00 in0.0 mm 0.03 in0.8 mm
11:19 AM 45.5°F7.5°C 43.3°F6.3°C 92% 6.0 mph W9.7 kmh W 12.0 mph19.3 kmh 29.75 in1007.5 mb 0.00 in0.0 mm 0.00 in0.0 mm 0.03 in0.8 mm
11:24 AM 45.7°F7.6°C 43.5°F6.4°C 92% 9.0 mph W14.5 kmh W 12.0 mph19.3 kmh 29.75 in1007.5 mb 0.00 in0.0 mm 0.00 in0.0 mm 0.03 in0.8 mm
11:29 AM 45.7°F7.6°C 43.5°F6.4°C 92% 7.0 mph WNW11.3 kmh WNW 11.0 mph17.7 kmh 29.76 in1007.8 mb 0.00 in0.0 mm 0.00 in0.0 mm 0.03 in0.8 mm
11:34 AM 45.7°F7.6°C 43.5°F6.4°C 92% 7.0 mph WNW11.3 kmh WNW 10.0 mph16.1 kmh 29.76 in1007.8 mb 0.00 in0.0 mm 0.00 in0.0 mm 0.03 in0.8 mm
11:39 AM 45.7°F7.6°C 43.2°F6.2°C 91% 7.0 mph W11.3 kmh W 11.0 mph17.7 kmh 29.76 in1007.8 mb 0.00 in0.0 mm 0.00 in0.0 mm 0.03 in0.8 mm
11:44 AM 45.7°F7.6°C 43.2°F6.2°C 91% 7.0 mph WNW11.3 kmh WNW 11.0 mph17.7 kmh 29.76 in1007.8 mb 0.00 in0.0 mm 0.00 in0.0 mm 0.03 in0.8 mm
11:49 AM 45.7°F7.6°C 43.2°F6.2°C 91% 7.0 mph WNW11.3 kmh WNW 12.0 mph19.3 kmh 29.76 in1007.8 mb 0.00 in0.0 mm 0.00 in0.0 mm 0.03 in0.8 mm
11:54 AM 45.5°F7.5°C 43.0°F6.1°C 91% 6.0 mph WNW9.7 kmh WNW 8.0 mph12.9 kmh 29.77 in1008.1 mb 0.00 in0.0 mm 0.00 in0.0 mm 0.03 in0.8 mm
11:59 AM 45.3°F7.4°C 42.9°F6.1°C 91% 5.0 mph W8.0 kmh W 10.0 mph16.1 kmh 29.76 in1007.8 mb 0.00 in0.0 mm 0.00 in0.0 mm 0.03 in0.8 mm
12:04 PM 45.3°F7.4°C 42.9°F6.1°C 91% 8.0 mph W12.9 kmh W 11.0 mph17.7 kmh 29.76 in1007.8 mb 0.00 in0.0 mm 0.00 in0.0 mm 0.03 in0.8 mm
12:09 PM 45.3°F7.4°C 42.9°F6.1°C 91% 9.0 mph W14.5 kmh W 12.0 mph19.3 kmh 29.77 in1008.1 mb 0.00 in0.0 mm 0.00 in0.0 mm 0.03 in0.8 mm
12:14 PM 45.5°F7.5°C 43.0°F6.1°C 91% 6.0 mph W9.7 kmh W 10.0 mph16.1 kmh 29.77 in1008.1 mb 0.00 in0.0 mm 0.00 in0.0 mm 0.03 in0.8 mm
12:19 PM 45.7°F7.6°C 43.2°F6.2°C 91% 8.0 mph W12.9 kmh W 11.0 mph17.7 kmh 29.77 in1008.1 mb 0.00 in0.0 mm 0.00 in0.0 mm 0.03 in0.8 mm
12:24 PM 45.7°F7.6°C 43.2°F6.2°C 91% 8.0 mph W12.9 kmh W 11.0 mph17.7 kmh 29.77 in1008.1 mb 0.00 in0.0 mm 0.00 in0.0 mm 0.03 in0.8 mm
12:29 PM 45.9°F7.7°C 43.4°F6.3°C 91% 6.0 mph WNW9.7 kmh WNW 10.0 mph16.1 kmh 29.77 in1008.1 mb 0.00 in0.0 mm 0.00 in0.0 mm 0.03 in0.8 mm
12:34 PM 45.9°F7.7°C 43.4°F6.3°C 91% 8.0 mph W12.9 kmh W 11.0 mph17.7 kmh 29.77 in1008.1 mb 0.00 in0.0 mm 0.00 in0.0 mm 0.03 in0.8 mm
12:39 PM 45.9°F7.7°C 43.4°F6.3°C 91% 8.0 mph WNW12.9 kmh WNW 11.0 mph17.7 kmh 29.77 in1008.1 mb 0.00 in0.0 mm 0.00 in0.0 mm 0.03 in0.8 mm
12:44 PM 45.9°F7.7°C 43.4°F6.3°C 91% 11.0 mph W17.7 kmh W 14.0 mph22.5 kmh 29.77 in1008.1 mb 0.00 in0.0 mm 0.00 in0.0 mm 0.03 in0.8 mm
12:49 PM 46.0°F7.8°C 43.3°F6.3°C 90% 8.0 mph W12.9 kmh W 11.0 mph17.7 kmh 29.78 in1008.5 mb 0.00 in0.0 mm 0.00 in0.0 mm 0.03 in0.8 mm
12:54 PM 46.0°F7.8°C 43.3°F6.3°C 90% 7.0 mph W11.3 kmh W 15.0 mph24.1 kmh 29.78 in1008.5 mb 0.00 in0.0 mm 0.00 in0.0 mm 0.03 in0.8 mm
12:59 PM 46.0°F7.8°C 43.3°F6.3°C 90% 9.0 mph WNW14.5 kmh WNW 12.0 mph19.3 kmh 29.78 in1008.5 mb 0.00 in0.0 mm 0.00 in0.0 mm 0.03 in0.8 mm
01:04 PM 46.0°F7.8°C 43.3°F6.3°C 90% 8.0 mph WNW12.9 kmh WNW 12.0 mph19.3 kmh 29.78 in1008.5 mb 0.00 in0.0 mm 0.00 in0.0 mm 0.03 in0.8 mm
01:09 PM 46.0°F7.8°C 43.3°F6.3°C 90% 11.0 mph W17.7 kmh W 14.0 mph22.5 kmh 29.78 in1008.5 mb 0.00 in0.0 mm 0.00 in0.0 mm 0.03 in0.8 mm
01:14 PM 46.0°F7.8°C 43.3°F6.3°C 90% 9.0 mph WNW14.5 kmh WNW 14.0 mph22.5 kmh 29.78 in1008.5 mb 0.00 in0.0 mm 0.00 in0.0 mm 0.03 in0.8 mm
01:19 PM 45.9°F7.7°C 43.1°F6.2°C 90% 11.0 mph W17.7 kmh W 14.0 mph22.5 kmh 29.78 in1008.5 mb 0.00 in0.0 mm 0.00 in0.0 mm 0.03 in0.8 mm
01:24 PM 46.0°F7.8°C 43.3°F6.3°C 90% 10.0 mph W16.1 kmh W 14.0 mph22.5 kmh 29.78 in1008.5 mb 0.00 in0.0 mm 0.00 in0.0 mm 0.03 in0.8 mm
01:29 PM 46.0°F7.8°C 43.3°F6.3°C 90% 9.0 mph WNW14.5 kmh WNW 12.0 mph19.3 kmh 29.78 in1008.5 mb 0.00 in0.0 mm 0.00 in0.0 mm 0.03 in0.8 mm
01:34 PM 46.0°F7.8°C 43.3°F6.3°C 90% 9.0 mph WNW14.5 kmh WNW 12.0 mph19.3 kmh 29.78 in1008.5 mb 0.00 in0.0 mm 0.00 in0.0 mm 0.03 in0.8 mm
01:39 PM 46.0°F7.8°C 43.0°F6.1°C 89% 8.0 mph W12.9 kmh W 11.0 mph17.7 kmh 29.79 in1008.8 mb 0.00 in0.0 mm 0.00 in0.0 mm 0.03 in0.8 mm
01:44 PM 46.0°F7.8°C 43.3°F6.3°C 90% 9.0 mph W14.5 kmh W 11.0 mph17.7 kmh 29.79 in1008.8 mb 0.00 in0.0 mm 0.00 in0.0 mm 0.03 in0.8 mm
01:49 PM 46.0°F7.8°C 43.3°F6.3°C 90% 7.0 mph W11.3 kmh W 13.0 mph20.9 kmh 29.79 in1008.8 mb 0.00 in0.0 mm 0.00 in0.0 mm 0.03 in0.8 mm
01:54 PM 46.0°F7.8°C 43.0°F6.1°C 89% 8.0 mph W12.9 kmh W 12.0 mph19.3 kmh 29.79 in1008.8 mb 0.00 in0.0 mm 0.00 in0.0 mm 0.03 in0.8 mm
01:59 PM 46.0°F7.8°C 43.3°F6.3°C 90% 9.0 mph W14.5 kmh W 11.0 mph17.7 kmh 29.79 in1008.8 mb 0.00 in0.0 mm 0.00 in0.0 mm 0.03 in0.8 mm
02:04 PM 46.0°F7.8°C 43.0°F6.1°C 89% 8.0 mph W12.9 kmh W 14.0 mph22.5 kmh 29.79 in1008.8 mb 0.00 in0.0 mm 0.00 in0.0 mm 0.03 in0.8 mm
02:09 PM 46.0°F7.8°C 43.0°F6.1°C 89% 9.0 mph W14.5 kmh W 12.0 mph19.3 kmh 29.79 in1008.8 mb 0.00 in0.0 mm 0.00 in0.0 mm 0.03 in0.8 mm
02:14 PM 46.0°F7.8°C 43.0°F6.1°C 89% 11.0 mph W17.7 kmh W 13.0 mph20.9 kmh 29.80 in1009.1 mb 0.00 in0.0 mm 0.00 in0.0 mm 0.03 in0.8 mm
02:19 PM 46.0°F7.8°C 43.0°F6.1°C 89% 9.0 mph WNW14.5 kmh WNW 14.0 mph22.5 kmh 29.80 in1009.1 mb 0.00 in0.0 mm 0.00 in0.0 mm 0.03 in0.8 mm
02:24 PM 46.2°F7.9°C 43.2°F6.2°C 89% 10.0 mph W16.1 kmh W 13.0 mph20.9 kmh 29.80 in1009.1 mb 0.00 in0.0 mm 0.00 in0.0 mm 0.03 in0.8 mm
02:29 PM 46.2°F7.9°C 43.2°F6.2°C 89% 9.0 mph WNW14.5 kmh WNW 13.0 mph20.9 kmh 29.80 in1009.1 mb 0.00 in0.0 mm 0.00 in0.0 mm 0.03 in0.8 mm
02:34 PM 46.2°F7.9°C 43.2°F6.2°C 89% 9.0 mph W14.5 kmh W 15.0 mph24.1 kmh 29.80 in1009.1 mb 0.00 in0.0 mm 0.00 in0.0 mm 0.03 in0.8 mm
02:39 PM 46.0°F7.8°C 43.0°F6.1°C 89% 9.0 mph WNW14.5 kmh WNW 12.0 mph19.3 kmh 29.80 in1009.1 mb 0.00 in0.0 mm 0.00 in0.0 mm 0.03 in0.8 mm
02:44 PM 46.0°F7.8°C 43.0°F6.1°C 89% 9.0 mph W14.5 kmh W 14.0 mph22.5 kmh 29.80 in1009.1 mb 0.00 in0.0 mm 0.00 in0.0 mm 0.03 in0.8 mm
02:49 PM 46.0°F7.8°C 43.0°F6.1°C 89% 9.0 mph WNW14.5 kmh WNW 12.0 mph19.3 kmh 29.80 in1009.1 mb 0.00 in0.0 mm 0.00 in0.0 mm 0.03 in0.8 mm
02:54 PM 46.2°F7.9°C 43.2°F6.2°C 89% 7.0 mph W11.3 kmh W 10.0 mph16.1 kmh 29.81 in1009.5 mb 0.00 in0.0 mm 0.00 in0.0 mm 0.03 in0.8 mm
02:59 PM 46.0°F7.8°C 43.0°F6.1°C 89% 10.0 mph W16.1 kmh W 13.0 mph20.9 kmh 29.81 in1009.5 mb 0.00 in0.0 mm 0.00 in0.0 mm 0.03 in0.8 mm
03:04 PM 46.0°F7.8°C 43.0°F6.1°C 89% 8.0 mph NW12.9 kmh NW 11.0 mph17.7 kmh 29.81 in1009.5 mb 0.00 in0.0 mm 0.00 in0.0 mm 0.03 in0.8 mm
03:09 PM 46.0°F7.8°C 43.0°F6.1°C 89% 6.0 mph WNW9.7 kmh WNW 9.0 mph14.5 kmh 29.82 in1009.8 mb 0.00 in0.0 mm 0.00 in0.0 mm 0.03 in0.8 mm
03:14 PM 46.2°F7.9°C 43.2°F6.2°C 89% 7.0 mph WNW11.3 kmh WNW 10.0 mph16.1 kmh 29.82 in1009.8 mb 0.00 in0.0 mm 0.00 in0.0 mm 0.03 in0.8 mm
03:19 PM 46.0°F7.8°C 43.0°F6.1°C 89% 5.0 mph W8.0 kmh W 8.0 mph12.9 kmh 29.82 in1009.8 mb 0.00 in0.0 mm 0.00 in0.0 mm 0.03 in0.8 mm
03:24 PM 46.0°F7.8°C 43.0°F6.1°C 89% 9.0 mph W14.5 kmh W 12.0 mph19.3 kmh 29.83 in1010.2 mb 0.00 in0.0 mm 0.00 in0.0 mm 0.03 in0.8 mm
03:29 PM 45.9°F7.7°C 42.8°F6.0°C 89% 8.0 mph W12.9 kmh W 10.0 mph16.1 kmh 29.83 in1010.2 mb 0.00 in0.0 mm 0.00 in0.0 mm 0.03 in0.8 mm
03:34 PM 45.9°F7.7°C 42.8°F6.0°C 89% 8.0 mph WNW12.9 kmh WNW 13.0 mph20.9 kmh 29.83 in1010.2 mb 0.00 in0.0 mm 0.00 in0.0 mm 0.03 in0.8 mm
03:39 PM 45.9°F7.7°C 42.8°F6.0°C 89% 8.0 mph WNW12.9 kmh WNW 12.0 mph19.3 kmh 29.84 in1010.5 mb 0.00 in0.0 mm 0.00 in0.0 mm 0.03 in0.8 mm
03:44 PM 45.7°F7.6°C 42.6°F5.9°C 89% 9.0 mph W14.5 kmh W 11.0 mph17.7 kmh 29.84 in1010.5 mb 0.00 in0.0 mm 0.00 in0.0 mm 0.03 in0.8 mm
03:49 PM 45.7°F7.6°C 42.6°F5.9°C 89% 9.0 mph W14.5 kmh W 13.0 mph20.9 kmh 29.85 in1010.8 mb 0.00 in0.0 mm 0.00 in0.0 mm 0.03 in0.8 mm
03:54 PM 45.7°F7.6°C 42.6°F5.9°C 89% 8.0 mph W12.9 kmh W 12.0 mph19.3 kmh 29.85 in1010.8 mb 0.00 in0.0 mm 0.00 in0.0 mm 0.03 in0.8 mm
03:59 PM 45.7°F7.6°C 42.6°F5.9°C 89% 10.0 mph WNW16.1 kmh WNW 14.0 mph22.5 kmh 29.86 in1011.2 mb 0.00 in0.0 mm 0.00 in0.0 mm 0.03 in0.8 mm
04:04 PM 45.7°F7.6°C 42.6°F5.9°C 89% 9.0 mph W14.5 kmh W 14.0 mph22.5 kmh 29.86 in1011.2 mb 0.00 in0.0 mm 0.00 in0.0 mm 0.03 in0.8 mm
04:09 PM 45.7°F7.6°C 42.6°F5.9°C 89% 10.0 mph WNW16.1 kmh WNW 17.0 mph27.4 kmh 29.87 in1011.5 mb 0.00 in0.0 mm 0.00 in0.0 mm 0.03 in0.8 mm
04:14 PM 45.7°F7.6°C 42.6°F5.9°C 89% 9.0 mph WNW14.5 kmh WNW 14.0 mph22.5 kmh 29.87 in1011.5 mb 0.00 in0.0 mm 0.00 in0.0 mm 0.03 in0.8 mm
04:19 PM 45.5°F7.5°C 42.5°F5.8°C 89% 8.0 mph W12.9 kmh W 12.0 mph19.3 kmh 29.87 in1011.5 mb 0.00 in0.0 mm 0.00 in0.0 mm 0.03 in0.8 mm
04:24 PM 45.5°F7.5°C 42.5°F5.8°C 89% 10.0 mph W16.1 kmh W 13.0 mph20.9 kmh 29.88 in1011.9 mb 0.00 in0.0 mm 0.00 in0.0 mm 0.03 in0.8 mm
04:29 PM 45.5°F7.5°C 42.5°F5.8°C 89% 9.0 mph W14.5 kmh W 13.0 mph20.9 kmh 29.88 in1011.9 mb 0.00 in0.0 mm 0.00 in0.0 mm 0.03 in0.8 mm
04:34 PM 45.3°F7.4°C 42.3°F5.7°C 89% 8.0 mph W12.9 kmh W 13.0 mph20.9 kmh 29.88 in1011.9 mb 0.00 in0.0 mm 0.00 in0.0 mm 0.03 in0.8 mm
04:39 PM 45.3°F7.4°C 42.3°F5.7°C 89% 9.0 mph W14.5 kmh W 13.0 mph20.9 kmh 29.88 in1011.9 mb 0.00 in0.0 mm 0.00 in0.0 mm 0.03 in0.8 mm
04:44 PM 45.3°F7.4°C 42.3°F5.7°C 89% 9.0 mph W14.5 kmh W 13.0 mph20.9 kmh 29.88 in1011.9 mb 0.00 in0.0 mm 0.00 in0.0 mm 0.03 in0.8 mm
04:49 PM 45.3°F7.4°C 42.3°F5.7°C 89% 10.0 mph WNW16.1 kmh WNW 16.0 mph25.7 kmh 29.88 in1011.9 mb 0.00 in0.0 mm 0.00 in0.0 mm 0.03 in0.8 mm
04:54 PM 45.3°F7.4°C 42.3°F5.7°C 89% 10.0 mph W16.1 kmh W 14.0 mph22.5 kmh 29.88 in1011.9 mb 0.00 in0.0 mm 0.00 in0.0 mm 0.03 in0.8 mm
04:59 PM 45.3°F7.4°C 42.3°F5.7°C 89% 9.0 mph WNW14.5 kmh WNW 11.0 mph17.7 kmh 29.89 in1012.2 mb 0.00 in0.0 mm 0.00 in0.0 mm 0.03 in0.8 mm
05:04 PM 45.3°F7.4°C 42.6°F5.9°C 90% 9.0 mph W14.5 kmh W 13.0 mph20.9 kmh 29.89 in1012.2 mb 0.00 in0.0 mm 0.00 in0.0 mm 0.03 in0.8 mm
05:10 PM 45.0°F7.2°C 42.2°F5.7°C 90% 8.0 mph W12.9 kmh W 11.0 mph17.7 kmh 29.89 in1012.2 mb 0.00 in0.0 mm 0.00 in0.0 mm 0.03 in0.8 mm
05:14 PM 45.0°F7.2°C 42.2°F5.7°C 90% 10.0 mph W16.1 kmh W 14.0 mph22.5 kmh 29.89 in1012.2 mb 0.00 in0.0 mm 0.00 in0.0 mm 0.03 in0.8 mm
05:19 PM 45.0°F7.2°C 42.2°F5.7°C 90% 8.0 mph W12.9 kmh W 11.0 mph17.7 kmh 29.89 in1012.2 mb 0.00 in0.0 mm 0.00 in0.0 mm 0.03 in0.8 mm
05:24 PM 45.0°F7.2°C 42.2°F5.7°C 90% 9.0 mph W14.5 kmh W 12.0 mph19.3 kmh 29.90 in1012.5 mb 0.00 in0.0 mm 0.00 in0.0 mm 0.03 in0.8 mm
05:29 PM 45.0°F7.2°C 42.2°F5.7°C 90% 9.0 mph W14.5 kmh W 15.0 mph24.1 kmh 29.90 in1012.5 mb 0.00 in0.0 mm 0.00 in0.0 mm 0.03 in0.8 mm
05:34 PM 45.0°F7.2°C 42.2°F5.7°C 90% 10.0 mph W16.1 kmh W 15.0 mph24.1 kmh 29.91 in1012.9 mb 0.00 in0.0 mm 0.00 in0.0 mm 0.03 in0.8 mm
05:39 PM 45.0°F7.2°C 42.2°F5.7°C 90% 10.0 mph WNW16.1 kmh WNW 13.0 mph20.9 kmh 29.91 in1012.9 mb 0.00 in0.0 mm 0.00 in0.0 mm 0.03 in0.8 mm
05:44 PM 45.0°F7.2°C 41.9°F5.5°C 89% 10.0 mph WNW16.1 kmh WNW 16.0 mph25.7 kmh 29.92 in1013.2 mb 0.00 in0.0 mm 0.00 in0.0 mm 0.03 in0.8 mm
05:49 PM 45.0°F7.2°C 42.2°F5.7°C 90% 11.0 mph W17.7 kmh W 14.0 mph22.5 kmh 29.92 in1013.2 mb 0.00 in0.0 mm 0.00 in0.0 mm 0.03 in0.8 mm
05:54 PM 45.0°F7.2°C 41.9°F5.5°C 89% 10.0 mph W16.1 kmh W 13.0 mph20.9 kmh 29.93 in1013.5 mb 0.00 in0.0 mm 0.00 in0.0 mm 0.03 in0.8 mm
05:59 PM 45.0°F7.2°C 42.2°F5.7°C 90% 9.0 mph W14.5 kmh W 13.0 mph20.9 kmh 29.93 in1013.5 mb 0.00 in0.0 mm 0.00 in0.0 mm 0.03 in0.8 mm
06:04 PM 45.0°F7.2°C 42.2°F5.7°C 90% 10.0 mph W16.1 kmh W 13.0 mph20.9 kmh 29.93 in1013.5 mb 0.00 in0.0 mm 0.00 in0.0 mm 0.03 in0.8 mm
06:09 PM 45.0°F7.2°C 42.2°F5.7°C 90% 9.0 mph W14.5 kmh W 12.0 mph19.3 kmh 29.93 in1013.5 mb 0.00 in0.0 mm 0.00 in0.0 mm 0.03 in0.8 mm
06:14 PM 44.8°F7.1°C 42.0°F5.6°C 90% 9.0 mph W14.5 kmh W 12.0 mph19.3 kmh 29.93 in1013.5 mb 0.00 in0.0 mm 0.00 in0.0 mm 0.03 in0.8 mm
06:19 PM 44.8°F7.1°C 42.3°F5.7°C 91% 10.0 mph W16.1 kmh W 15.0 mph24.1 kmh 29.93 in1013.5 mb 0.00 in0.0 mm 0.00 in0.0 mm 0.03 in0.8 mm
06:24 PM 44.8°F7.1°C 42.3°F5.7°C 91% 8.0 mph W12.9 kmh W 10.0 mph16.1 kmh 29.94 in1013.9 mb 0.00 in0.0 mm 0.00 in0.0 mm 0.03 in0.8 mm
06:29 PM 44.8°F7.1°C 42.3°F5.7°C 91% 8.0 mph W12.9 kmh W 12.0 mph19.3 kmh 29.94 in1013.9 mb 0.00 in0.0 mm 0.00 in0.0 mm 0.03 in0.8 mm
06:34 PM 44.8°F7.1°C 42.3°F5.7°C 91% 8.0 mph W12.9 kmh W 11.0 mph17.7 kmh 29.94 in1013.9 mb 0.00 in0.0 mm 0.00 in0.0 mm 0.03 in0.8 mm
06:39 PM 45.0°F7.2°C 42.5°F5.8°C 91% 8.0 mph W12.9 kmh W 10.0 mph16.1 kmh 29.94 in1013.9 mb 0.00 in0.0 mm 0.00 in0.0 mm 0.03 in0.8 mm
06:44 PM 45.0°F7.2°C 42.5°F5.8°C 91% 8.0 mph W12.9 kmh W 10.0 mph16.1 kmh 29.95 in1014.2 mb 0.00 in0.0 mm 0.00 in0.0 mm 0.03 in0.8 mm
06:49 PM 45.0°F7.2°C 42.5°F5.8°C 91% 8.0 mph W12.9 kmh W 11.0 mph17.7 kmh 29.95 in1014.2 mb 0.00 in0.0 mm 0.00 in0.0 mm 0.03 in0.8 mm
06:54 PM 44.8°F7.1°C 42.3°F5.7°C 91% 8.0 mph WSW12.9 kmh WSW 11.0 mph17.7 kmh 29.95 in1014.2 mb 0.00 in0.0 mm 0.00 in0.0 mm 0.03 in0.8 mm
06:59 PM 44.8°F7.1°C 42.3°F5.7°C 91% 7.0 mph W11.3 kmh W 10.0 mph16.1 kmh 29.95 in1014.2 mb 0.00 in0.0 mm 0.00 in0.0 mm 0.03 in0.8 mm
07:04 PM 44.8°F7.1°C 42.3°F5.7°C 91% 6.0 mph W9.7 kmh W 10.0 mph16.1 kmh 29.95 in1014.2 mb 0.00 in0.0 mm 0.00 in0.0 mm 0.03 in0.8 mm
07:09 PM 44.6°F7.0°C 42.1°F5.6°C 91% 6.0 mph WSW9.7 kmh WSW 11.0 mph17.7 kmh 29.96 in1014.6 mb 0.00 in0.0 mm 0.00 in0.0 mm 0.03 in0.8 mm
07:14 PM 44.6°F7.0°C 42.1°F5.6°C 91% 8.0 mph W12.9 kmh W 10.0 mph16.1 kmh 29.96 in1014.6 mb 0.00 in0.0 mm 0.00 in0.0 mm 0.03 in0.8 mm
07:19 PM 44.6°F7.0°C 42.1°F5.6°C 91% 10.0 mph W16.1 kmh W 13.0 mph20.9 kmh 29.96 in1014.6 mb 0.00 in0.0 mm 0.00 in0.0 mm 0.03 in0.8 mm
07:24 PM 44.6°F7.0°C 42.1°F5.6°C 91% 8.0 mph W12.9 kmh W 13.0 mph20.9 kmh 29.96 in1014.6 mb 0.00 in0.0 mm 0.00 in0.0 mm 0.03 in0.8 mm
07:29 PM 44.6°F7.0°C 42.1°F5.6°C 91% 8.0 mph W12.9 kmh W 10.0 mph16.1 kmh 29.96 in1014.6 mb 0.00 in0.0 mm 0.00 in0.0 mm 0.03 in0.8 mm
07:34 PM 44.6°F7.0°C 42.1°F5.6°C 91% 7.0 mph WSW11.3 kmh WSW 9.0 mph14.5 kmh 29.97 in1014.9 mb 0.00 in0.0 mm 0.00 in0.0 mm 0.03 in0.8 mm
07:39 PM 44.6°F7.0°C 42.1°F5.6°C 91% 8.0 mph W12.9 kmh W 12.0 mph19.3 kmh 29.97 in1014.9 mb 0.00 in0.0 mm 0.00 in0.0 mm 0.03 in0.8 mm
07:44 PM 44.6°F7.0°C 42.1°F5.6°C 91% 9.0 mph W14.5 kmh W 12.0 mph19.3 kmh 29.97 in1014.9 mb 0.00 in0.0 mm 0.00 in0.0 mm 0.03 in0.8 mm
07:49 PM 44.6°F7.0°C 42.1°F5.6°C 91% 9.0 mph W14.5 kmh W 13.0 mph20.9 kmh 29.97 in1014.9 mb 0.00 in0.0 mm 0.00 in0.0 mm 0.03 in0.8 mm
07:54 PM 44.8°F7.1°C 42.3°F5.7°C 91% 11.0 mph W17.7 kmh W 15.0 mph24.1 kmh 29.97 in1014.9 mb 0.00 in0.0 mm 0.00 in0.0 mm 0.03 in0.8 mm
07:59 PM 44.6°F7.0°C 42.1°F5.6°C 91% 10.0 mph W16.1 kmh W 15.0 mph24.1 kmh 29.97 in1014.9 mb 0.00 in0.0 mm 0.00 in0.0 mm 0.03 in0.8 mm
08:04 PM 44.8°F7.1°C 42.3°F5.7°C 91% 7.0 mph WSW11.3 kmh WSW 11.0 mph17.7 kmh 29.98 in1015.2 mb 0.00 in0.0 mm 0.00 in0.0 mm 0.03 in0.8 mm
08:09 PM 44.8°F7.1°C 42.3°F5.7°C 91% 8.0 mph W12.9 kmh W 12.0 mph19.3 kmh 29.98 in1015.2 mb 0.00 in0.0 mm 0.00 in0.0 mm 0.03 in0.8 mm
08:14 PM 44.8°F7.1°C 42.3°F5.7°C 91% 10.0 mph W16.1 kmh W 13.0 mph20.9 kmh 29.97 in1014.9 mb 0.00 in0.0 mm 0.00 in0.0 mm 0.03 in0.8 mm
08:19 PM 44.6°F7.0°C 42.1°F5.6°C 91% 9.0 mph WSW14.5 kmh WSW 12.0 mph19.3 kmh 29.98 in1015.2 mb 0.00 in0.0 mm 0.00 in0.0 mm 0.03 in0.8 mm
08:24 PM 44.6°F7.0°C 42.1°F5.6°C 91% 8.0 mph W12.9 kmh W 13.0 mph20.9 kmh 29.99 in1015.6 mb 0.00 in0.0 mm 0.00 in0.0 mm 0.03 in0.8 mm
08:29 PM 44.6°F7.0°C 42.1°F5.6°C 91% 10.0 mph W16.1 kmh W 13.0 mph20.9 kmh 29.99 in1015.6 mb 0.00 in0.0 mm 0.00 in0.0 mm 0.03 in0.8 mm
08:34 PM 44.6°F7.0°C 42.1°F5.6°C 91% 8.0 mph W12.9 kmh W 11.0 mph17.7 kmh 29.99 in1015.6 mb 0.00 in0.0 mm 0.00 in0.0 mm 0.03 in0.8 mm
08:39 PM 44.8°F7.1°C 42.3°F5.7°C 91% 11.0 mph W17.7 kmh W 13.0 mph20.9 kmh 29.99 in1015.6 mb 0.00 in0.0 mm 0.00 in0.0 mm 0.03 in0.8 mm
08:44 PM 44.8°F7.1°C 42.0°F5.6°C 90% 9.0 mph WSW14.5 kmh WSW 14.0 mph22.5 kmh 29.99 in1015.6 mb 0.00 in0.0 mm 0.00 in0.0 mm 0.03 in0.8 mm
08:49 PM 44.8°F7.1°C 42.3°F5.7°C 91% 11.0 mph W17.7 kmh W 13.0 mph20.9 kmh 29.99 in1015.6 mb 0.00 in0.0 mm 0.00 in0.0 mm 0.03 in0.8 mm
08:54 PM 44.8°F7.1°C 42.3°F5.7°C 91% 9.0 mph W14.5 kmh W 14.0 mph22.5 kmh 29.99 in1015.6 mb 0.00 in0.0 mm 0.00 in0.0 mm 0.03 in0.8 mm
08:59 PM 44.8°F7.1°C 42.0°F5.6°C 90% 10.0 mph W16.1 kmh W 14.0 mph22.5 kmh 29.99 in1015.6 mb 0.00 in0.0 mm 0.00 in0.0 mm 0.03 in0.8 mm
09:04 PM 44.8°F7.1°C 42.0°F5.6°C 90% 9.0 mph WSW14.5 kmh WSW 15.0 mph24.1 kmh 29.99 in1015.6 mb 0.00 in0.0 mm 0.00 in0.0 mm 0.03 in0.8 mm
09:09 PM 44.8°F7.1°C 42.0°F5.6°C 90% 9.0 mph W14.5 kmh W 12.0 mph19.3 kmh 29.99 in1015.6 mb 0.00 in0.0 mm 0.00 in0.0 mm 0.03 in0.8 mm
09:14 PM 44.8°F7.1°C 42.0°F5.6°C 90% 11.0 mph W17.7 kmh W 16.0 mph25.7 kmh 30.00 in1015.9 mb 0.00 in0.0 mm 0.00 in0.0 mm 0.03 in0.8 mm
09:19 PM 44.8°F7.1°C 42.0°F5.6°C 90% 9.0 mph W14.5 kmh W 11.0 mph17.7 kmh 29.99 in1015.6 mb 0.00 in0.0 mm 0.00 in0.0 mm 0.03 in0.8 mm
09:24 PM 44.8°F7.1°C 42.0°F5.6°C 90% 6.0 mph WSW9.7 kmh WSW 8.0 mph12.9 kmh 30.00 in1015.9 mb 0.00 in0.0 mm 0.00 in0.0 mm 0.03 in0.8 mm
09:29 PM 44.8°F7.1°C 42.0°F5.6°C 90% 10.0 mph W16.1 kmh W 13.0 mph20.9 kmh 30.00 in1015.9 mb 0.00 in0.0 mm 0.00 in0.0 mm 0.03 in0.8 mm
09:34 PM 44.8°F7.1°C 42.0°F5.6°C 90% 10.0 mph W16.1 kmh W 13.0 mph20.9 kmh 30.00 in1015.9 mb 0.00 in0.0 mm 0.00 in0.0 mm 0.03 in0.8 mm
09:39 PM 45.0°F7.2°C 41.9°F5.5°C 89% 5.0 mph W8.0 kmh W 8.0 mph12.9 kmh 30.00 in1015.9 mb 0.00 in0.0 mm 0.00 in0.0 mm 0.03 in0.8 mm
09:44 PM 45.0°F7.2°C 41.9°F5.5°C 89% 9.0 mph WSW14.5 kmh WSW 12.0 mph19.3 kmh 30.00 in1015.9 mb 0.00 in0.0 mm 0.00 in0.0 mm 0.03 in0.8 mm
09:49 PM 45.1°F7.3°C 42.1°F5.6°C 89% 9.0 mph W14.5 kmh W 16.0 mph25.7 kmh 30.01 in1016.3 mb 0.00 in0.0 mm 0.00 in0.0 mm 0.03 in0.8 mm
09:54 PM 45.0°F7.2°C 41.9°F5.5°C 89% 10.0 mph W16.1 kmh W 14.0 mph22.5 kmh 30.01 in1016.3 mb 0.00 in0.0 mm 0.00 in0.0 mm 0.03 in0.8 mm
09:59 PM 45.0°F7.2°C 41.9°F5.5°C 89% 9.0 mph W14.5 kmh W 11.0 mph17.7 kmh 30.01 in1016.3 mb 0.00 in0.0 mm 0.00 in0.0 mm 0.03 in0.8 mm
10:04 PM 45.0°F7.2°C 41.9°F5.5°C 89% 8.0 mph WSW12.9 kmh WSW 11.0 mph17.7 kmh 30.01 in1016.3 mb 0.00 in0.0 mm 0.00 in0.0 mm 0.03 in0.8 mm
10:09 PM 45.0°F7.2°C 41.9°F5.5°C 89% 9.0 mph W14.5 kmh W 12.0 mph19.3 kmh 30.01 in1016.3 mb 0.00 in0.0 mm 0.00 in0.0 mm 0.03 in0.8 mm
10:14 PM 44.8°F7.1°C 41.7°F5.4°C 89% 8.0 mph WSW12.9 kmh WSW 11.0 mph17.7 kmh 30.02 in1016.6 mb 0.00 in0.0 mm 0.00 in0.0 mm 0.03 in0.8 mm
10:19 PM 44.8°F7.1°C 41.7°F5.4°C 89% 7.0 mph W11.3 kmh W 12.0 mph19.3 kmh 30.03 in1016.9 mb 0.00 in0.0 mm 0.00 in0.0 mm 0.03 in0.8 mm
10:24 PM 44.6°F7.0°C 41.9°F5.5°C 90% 8.0 mph W12.9 kmh W 10.0 mph16.1 kmh 30.03 in1016.9 mb 0.00 in0.0 mm 0.00 in0.0 mm 0.03 in0.8 mm
10:29 PM 44.6°F7.0°C 41.9°F5.5°C 90% 8.0 mph W12.9 kmh W 13.0 mph20.9 kmh 30.03 in1016.9 mb 0.00 in0.0 mm 0.00 in0.0 mm 0.03 in0.8 mm
10:34 PM 44.6°F7.0°C 41.9°F5.5°C 90% 10.0 mph W16.1 kmh W 13.0 mph20.9 kmh 30.03 in1016.9 mb 0.00 in0.0 mm 0.00 in0.0 mm 0.03 in0.8 mm
10:39 PM 44.6°F7.0°C 41.9°F5.5°C 90% 10.0 mph W16.1 kmh W 15.0 mph24.1 kmh 30.03 in1016.9 mb 0.00 in0.0 mm 0.00 in0.0 mm 0.03 in0.8 mm
10:44 PM 44.4°F6.9°C 41.7°F5.4°C 90% 7.0 mph WSW11.3 kmh WSW 9.0 mph14.5 kmh 30.03 in1016.9 mb 0.00 in0.0 mm 0.00 in0.0 mm 0.03 in0.8 mm
10:49 PM 44.4°F6.9°C 41.7°F5.4°C 90% 6.0 mph W9.7 kmh W 9.0 mph14.5 kmh 30.03 in1016.9 mb 0.00 in0.0 mm 0.00 in0.0 mm 0.03 in0.8 mm
10:54 PM 44.4°F6.9°C 41.7°F5.4°C 90% 5.0 mph WSW8.0 kmh WSW 10.0 mph16.1 kmh 30.03 in1016.9 mb 0.00 in0.0 mm 0.00 in0.0 mm 0.03 in0.8 mm
10:59 PM 44.2°F6.8°C 41.5°F5.3°C 90% 7.0 mph W11.3 kmh W 9.0 mph14.5 kmh 30.04 in1017.3 mb 0.00 in0.0 mm 0.00 in0.0 mm 0.03 in0.8 mm
11:04 PM 44.2°F6.8°C 41.5°F5.3°C 90% 5.0 mph W8.0 kmh W 8.0 mph12.9 kmh 30.04 in1017.3 mb 0.00 in0.0 mm 0.00 in0.0 mm 0.03 in0.8 mm
11:09 PM 44.2°F6.8°C 41.5°F5.3°C 90% 6.0 mph W9.7 kmh W 9.0 mph14.5 kmh 30.04 in1017.3 mb 0.00 in0.0 mm 0.00 in0.0 mm 0.03 in0.8 mm
11:14 PM 44.2°F6.8°C 41.5°F5.3°C 90% 9.0 mph W14.5 kmh W 11.0 mph17.7 kmh 30.04 in1017.3 mb 0.00 in0.0 mm 0.00 in0.0 mm 0.03 in0.8 mm
11:19 PM 44.1°F6.7°C 41.3°F5.2°C 90% 8.0 mph W12.9 kmh W 11.0 mph17.7 kmh 30.04 in1017.3 mb 0.00 in0.0 mm 0.00 in0.0 mm 0.03 in0.8 mm
11:24 PM 44.2°F6.8°C 41.5°F5.3°C 90% 9.0 mph W14.5 kmh W 11.0 mph17.7 kmh 30.04 in1017.3 mb 0.00 in0.0 mm 0.00 in0.0 mm 0.03 in0.8 mm
11:29 PM 44.2°F6.8°C 41.5°F5.3°C 90% 8.0 mph W12.9 kmh W 11.0 mph17.7 kmh 30.05 in1017.6 mb 0.00 in0.0 mm 0.00 in0.0 mm 0.03 in0.8 mm
11:34 PM 44.4°F6.9°C 41.7°F5.4°C 90% 7.0 mph W11.3 kmh W 9.0 mph14.5 kmh 30.05 in1017.6 mb 0.00 in0.0 mm 0.00 in0.0 mm 0.03 in0.8 mm
11:39 PM 44.4°F6.9°C 41.7°F5.4°C 90% 7.0 mph W11.3 kmh W 10.0 mph16.1 kmh 30.06 in1017.9 mb 0.00 in0.0 mm 0.00 in0.0 mm 0.03 in0.8 mm
11:44 PM 44.4°F6.9°C 41.4°F5.2°C 89% 8.0 mph W12.9 kmh W 13.0 mph20.9 kmh 30.06 in1017.9 mb 0.00 in0.0 mm 0.00 in0.0 mm 0.03 in0.8 mm
11:49 PM 44.4°F6.9°C 41.4°F5.2°C 89% 9.0 mph W14.5 kmh W 15.0 mph24.1 kmh 30.06 in1017.9 mb 0.00 in0.0 mm 0.00 in0.0 mm 0.03 in0.8 mm
11:54 PM 44.4°F6.9°C 41.4°F5.2°C 89% 8.0 mph W12.9 kmh W 12.0 mph19.3 kmh 30.06 in1017.9 mb 0.00 in0.0 mm 0.00 in0.0 mm 0.03 in0.8 mm
11:59 PM 44.2°F6.8°C 41.5°F5.3°C 90% 7.0 mph W11.3 kmh W 10.0 mph16.1 kmh 30.06 in1017.9 mb 0.00 in0.0 mm 0.00 in0.0 mm 0.03 in0.8 mm